sensor_id;sensor_type;location;lat;lon;timestamp;P1;durP1;ratioP1;P2;durP2;ratioP2
13267;SDS011;6702;47.068;15.458;2022-11-15T00:01:06;81.73;;;47.53;;
13267;SDS011;6702;47.068;15.458;2022-11-15T00:04:10;76.47;;;48.00;;
13267;SDS011;6702;47.068;15.458;2022-11-15T00:07:13;88.07;;;49.77;;
13267;SDS011;6702;47.068;15.458;2022-11-15T00:10:38;77.37;;;46.30;;
13267;SDS011;6702;47.068;15.458;2022-11-15T00:13:41;78.23;;;44.80;;
13267;SDS011;6702;47.068;15.458;2022-11-15T00:16:44;70.77;;;44.77;;
13267;SDS011;6702;47.068;15.458;2022-11-15T00:19:47;79.90;;;47.87;;
13267;SDS011;6702;47.068;15.458;2022-11-15T00:22:51;71.07;;;44.17;;
13267;SDS011;6702;47.068;15.458;2022-11-15T00:25:56;81.00;;;47.40;;
13267;SDS011;6702;47.068;15.458;2022-11-15T00:29:00;81.80;;;44.87;;
13267;SDS011;6702;47.068;15.458;2022-11-15T00:32:03;70.83;;;42.97;;
13267;SDS011;6702;47.068;15.458;2022-11-15T00:35:07;72.70;;;44.17;;
13267;SDS011;6702;47.068;15.458;2022-11-15T00:38:10;69.43;;;44.60;;
13267;SDS011;6702;47.068;15.458;2022-11-15T00:41:15;68.83;;;46.10;;
13267;SDS011;6702;47.068;15.458;2022-11-15T00:44:18;81.37;;;49.33;;
13267;SDS011;6702;47.068;15.458;2022-11-15T00:47:21;87.73;;;54.93;;
13267;SDS011;6702;47.068;15.458;2022-11-15T00:50:24;72.40;;;46.27;;
13267;SDS011;6702;47.068;15.458;2022-11-15T00:53:27;78.17;;;48.20;;
13267;SDS011;6702;47.068;15.458;2022-11-15T00:56:33;74.70;;;45.93;;
13267;SDS011;6702;47.068;15.458;2022-11-15T00:59:36;75.70;;;44.17;;
13267;SDS011;6702;47.068;15.458;2022-11-15T01:02:39;72.27;;;46.77;;
13267;SDS011;6702;47.068;15.458;2022-11-15T01:05:42;74.40;;;45.70;;
13267;SDS011;6702;47.068;15.458;2022-11-15T01:08:45;78.23;;;45.40;;
13267;SDS011;6702;47.068;15.458;2022-11-15T01:11:50;78.50;;;45.37;;
13267;SDS011;6702;47.068;15.458;2022-11-15T01:14:53;70.83;;;44.43;;
13267;SDS011;6702;47.068;15.458;2022-11-15T01:17:57;71.13;;;44.00;;
13267;SDS011;6702;47.068;15.458;2022-11-15T01:21:04;63.23;;;41.40;;
13267;SDS011;6702;47.068;15.458;2022-11-15T01:24:08;70.60;;;44.60;;
13267;SDS011;6702;47.068;15.458;2022-11-15T01:27:16;70.83;;;45.20;;
13267;SDS011;6702;47.068;15.458;2022-11-15T01:30:20;64.63;;;40.63;;
13267;SDS011;6702;47.068;15.458;2022-11-15T01:33:23;65.63;;;46.00;;
13267;SDS011;6702;47.068;15.458;2022-11-15T01:36:26;74.20;;;46.40;;
13267;SDS011;6702;47.068;15.458;2022-11-15T01:39:29;74.17;;;44.30;;
13267;SDS011;6702;47.068;15.458;2022-11-15T01:42:34;86.03;;;50.73;;
13267;SDS011;6702;47.068;15.458;2022-11-15T01:45:37;70.83;;;45.53;;
13267;SDS011;6702;47.068;15.458;2022-11-15T01:48:40;74.73;;;48.63;;
13267;SDS011;6702;47.068;15.458;2022-11-15T01:51:43;73.53;;;45.87;;
13267;SDS011;6702;47.068;15.458;2022-11-15T01:54:47;71.73;;;45.50;;
13267;SDS011;6702;47.068;15.458;2022-11-15T01:57:55;83.50;;;52.20;;
13267;SDS011;6702;47.068;15.458;2022-11-15T02:01:00;88.30;;;53.30;;
13267;SDS011;6702;47.068;15.458;2022-11-15T02:04:05;82.13;;;50.10;;
13267;SDS011;6702;47.068;15.458;2022-11-15T02:07:14;83.00;;;48.33;;
13267;SDS011;6702;47.068;15.458;2022-11-15T02:10:20;94.47;;;55.60;;
13267;SDS011;6702;47.068;15.458;2022-11-15T02:13:27;85.90;;;49.90;;
13267;SDS011;6702;47.068;15.458;2022-11-15T02:16:32;83.77;;;48.90;;
13267;SDS011;6702;47.068;15.458;2022-11-15T02:20:00;84.80;;;45.90;;
13267;SDS011;6702;47.068;15.458;2022-11-15T02:27:53;87.07;;;48.80;;
13267;SDS011;6702;47.068;15.458;2022-11-15T02:31:11;81.20;;;46.97;;
13267;SDS011;6702;47.068;15.458;2022-11-15T02:34:21;81.13;;;48.60;;
13267;SDS011;6702;47.068;15.458;2022-11-15T02:37:33;78.43;;;46.90;;
13267;SDS011;6702;47.068;15.458;2022-11-15T02:40:42;81.40;;;47.30;;
13267;SDS011;6702;47.068;15.458;2022-11-15T02:43:56;82.73;;;48.93;;
13267;SDS011;6702;47.068;15.458;2022-11-15T02:47:07;78.97;;;47.43;;
13267;SDS011;6702;47.068;15.458;2022-11-15T02:50:17;76.73;;;45.80;;
13267;SDS011;6702;47.068;15.458;2022-11-15T02:53:24;77.40;;;46.63;;
13267;SDS011;6702;47.068;15.458;2022-11-15T02:56:27;82.83;;;47.20;;
13267;SDS011;6702;47.068;15.458;2022-11-15T02:59:38;76.87;;;47.07;;
13267;SDS011;6702;47.068;15.458;2022-11-15T03:02:57;83.20;;;48.60;;
13267;SDS011;6702;47.068;15.458;2022-11-15T03:06:14;83.23;;;47.57;;
13267;SDS011;6702;47.068;15.458;2022-11-15T03:09:28;81.70;;;48.03;;
13267;SDS011;6702;47.068;15.458;2022-11-15T03:12:36;83.30;;;50.00;;
13267;SDS011;6702;47.068;15.458;2022-11-15T03:15:49;92.67;;;49.47;;
13267;SDS011;6702;47.068;15.458;2022-11-15T03:19:03;88.30;;;48.67;;
13267;SDS011;6702;47.068;15.458;2022-11-15T03:22:09;87.50;;;48.80;;
13267;SDS011;6702;47.068;15.458;2022-11-15T03:25:17;86.13;;;47.87;;
13267;SDS011;6702;47.068;15.458;2022-11-15T03:28:23;78.17;;;45.70;;
13267;SDS011;6702;47.068;15.458;2022-11-15T03:31:32;85.37;;;47.37;;
13267;SDS011;6702;47.068;15.458;2022-11-15T03:34:53;88.43;;;50.57;;
13267;SDS011;6702;47.068;15.458;2022-11-15T03:38:03;76.97;;;48.57;;
13267;SDS011;6702;47.068;15.458;2022-11-15T03:41:12;80.97;;;46.60;;
13267;SDS011;6702;47.068;15.458;2022-11-15T03:44:27;84.80;;;47.67;;
13267;SDS011;6702;47.068;15.458;2022-11-15T03:47:38;80.23;;;47.63;;
13267;SDS011;6702;47.068;15.458;2022-11-15T03:50:45;77.40;;;46.20;;
13267;SDS011;6702;47.068;15.458;2022-11-15T03:53:49;79.37;;;48.57;;
13267;SDS011;6702;47.068;15.458;2022-11-15T03:56:53;80.93;;;52.70;;
13267;SDS011;6702;47.068;15.458;2022-11-15T03:59:56;81.10;;;47.33;;
13267;SDS011;6702;47.068;15.458;2022-11-15T04:02:59;81.37;;;48.60;;
13267;SDS011;6702;47.068;15.458;2022-11-15T04:06:04;92.80;;;50.10;;
13267;SDS011;6702;47.068;15.458;2022-11-15T04:09:08;79.93;;;50.17;;
13267;SDS011;6702;47.068;15.458;2022-11-15T04:12:11;77.20;;;47.33;;
13267;SDS011;6702;47.068;15.458;2022-11-15T04:15:14;93.60;;;48.97;;
13267;SDS011;6702;47.068;15.458;2022-11-15T04:18:19;84.60;;;47.23;;
13267;SDS011;6702;47.068;15.458;2022-11-15T04:21:24;89.77;;;50.83;;
13267;SDS011;6702;47.068;15.458;2022-11-15T04:24:44;93.57;;;50.00;;
13267;SDS011;6702;47.068;15.458;2022-11-15T04:27:47;92.67;;;50.23;;
13267;SDS011;6702;47.068;15.458;2022-11-15T04:30:50;104.07;;;55.20;;
13267;SDS011;6702;47.068;15.458;2022-11-15T04:33:54;92.33;;;49.57;;
13267;SDS011;6702;47.068;15.458;2022-11-15T04:36:59;95.60;;;49.93;;
13267;SDS011;6702;47.068;15.458;2022-11-15T04:40:14;92.50;;;48.83;;
13267;SDS011;6702;47.068;15.458;2022-11-15T04:43:17;101.93;;;50.63;;
13267;SDS011;6702;47.068;15.458;2022-11-15T04:46:20;95.40;;;51.47;;
13267;SDS011;6702;47.068;15.458;2022-11-15T04:49:24;106.20;;;52.30;;
13267;SDS011;6702;47.068;15.458;2022-11-15T04:52:29;91.93;;;49.30;;
13267;SDS011;6702;47.068;15.458;2022-11-15T04:55:32;106.93;;;51.73;;
13267;SDS011;6702;47.068;15.458;2022-11-15T04:58:35;104.97;;;50.90;;
13267;SDS011;6702;47.068;15.458;2022-11-15T05:01:38;103.00;;;50.77;;
13267;SDS011;6702;47.068;15.458;2022-11-15T05:04:45;101.50;;;52.27;;
13267;SDS011;6702;47.068;15.458;2022-11-15T05:07:50;111.70;;;52.87;;
13267;SDS011;6702;47.068;15.458;2022-11-15T05:10:53;92.03;;;50.03;;
13267;SDS011;6702;47.068;15.458;2022-11-15T05:13:56;100.23;;;52.33;;
13267;SDS011;6702;47.068;15.458;2022-11-15T05:16:59;90.70;;;47.20;;
13267;SDS011;6702;47.068;15.458;2022-11-15T05:20:04;89.87;;;49.93;;
13267;SDS011;6702;47.068;15.458;2022-11-15T05:23:09;85.00;;;47.87;;
13267;SDS011;6702;47.068;15.458;2022-11-15T05:26:12;99.30;;;49.80;;
13267;SDS011;6702;47.068;15.458;2022-11-15T05:29:17;98.83;;;51.70;;
13267;SDS011;6702;47.068;15.458;2022-11-15T05:32:20;97.33;;;49.63;;
13267;SDS011;6702;47.068;15.458;2022-11-15T05:35:26;98.47;;;50.17;;
13267;SDS011;6702;47.068;15.458;2022-11-15T05:38:34;118.97;;;53.07;;
13267;SDS011;6702;47.068;15.458;2022-11-15T05:41:38;94.50;;;48.40;;
13267;SDS011;6702;47.068;15.458;2022-11-15T05:44:46;106.27;;;55.73;;
13267;SDS011;6702;47.068;15.458;2022-11-15T05:47:51;103.07;;;51.53;;
13267;SDS011;6702;47.068;15.458;2022-11-15T05:50:57;109.10;;;51.20;;
13267;SDS011;6702;47.068;15.458;2022-11-15T05:54:03;112.73;;;52.10;;
13267;SDS011;6702;47.068;15.458;2022-11-15T05:57:06;102.67;;;50.17;;
13267;SDS011;6702;47.068;15.458;2022-11-15T06:00:10;107.53;;;49.60;;
13267;SDS011;6702;47.068;15.458;2022-11-15T06:03:14;92.10;;;49.40;;
13267;SDS011;6702;47.068;15.458;2022-11-15T06:06:17;109.53;;;51.10;;
13267;SDS011;6702;47.068;15.458;2022-11-15T06:09:22;95.03;;;49.50;;
13267;SDS011;6702;47.068;15.458;2022-11-15T06:12:25;109.43;;;55.57;;
13267;SDS011;6702;47.068;15.458;2022-11-15T06:15:28;108.23;;;50.77;;
13267;SDS011;6702;47.068;15.458;2022-11-15T06:18:32;103.10;;;54.83;;
13267;SDS011;6702;47.068;15.458;2022-11-15T06:21:35;112.27;;;49.87;;
13267;SDS011;6702;47.068;15.458;2022-11-15T06:24:40;91.20;;;47.67;;
13267;SDS011;6702;47.068;15.458;2022-11-15T06:27:50;92.93;;;46.30;;
13267;SDS011;6702;47.068;15.458;2022-11-15T06:30:53;83.97;;;43.87;;
13267;SDS011;6702;47.068;15.458;2022-11-15T06:33:56;85.10;;;43.50;;
13267;SDS011;6702;47.068;15.458;2022-11-15T06:36:59;83.60;;;45.57;;
13267;SDS011;6702;47.068;15.458;2022-11-15T06:40:05;83.90;;;46.30;;
13267;SDS011;6702;47.068;15.458;2022-11-15T06:43:09;81.70;;;42.87;;
13267;SDS011;6702;47.068;15.458;2022-11-15T06:46:12;78.07;;;42.73;;
13267;SDS011;6702;47.068;15.458;2022-11-15T06:49:15;79.43;;;46.83;;
13267;SDS011;6702;47.068;15.458;2022-11-15T06:52:18;83.90;;;41.33;;
13267;SDS011;6702;47.068;15.458;2022-11-15T06:55:24;75.03;;;41.43;;
13267;SDS011;6702;47.068;15.458;2022-11-15T06:58:27;83.67;;;44.77;;
13267;SDS011;6702;47.068;15.458;2022-11-15T07:01:30;76.23;;;43.87;;
13267;SDS011;6702;47.068;15.458;2022-11-15T07:04:34;71.77;;;40.60;;
13267;SDS011;6702;47.068;15.458;2022-11-15T07:07:37;70.83;;;40.87;;
13267;SDS011;6702;47.068;15.458;2022-11-15T07:10:42;74.87;;;40.30;;
13267;SDS011;6702;47.068;15.458;2022-11-15T07:13:45;78.20;;;41.30;;
13267;SDS011;6702;47.068;15.458;2022-11-15T07:16:48;76.83;;;41.67;;
13267;SDS011;6702;47.068;15.458;2022-11-15T07:19:51;74.10;;;39.97;;
13267;SDS011;6702;47.068;15.458;2022-11-15T07:22:58;73.77;;;39.27;;
13267;SDS011;6702;47.068;15.458;2022-11-15T07:26:03;74.93;;;40.27;;
13267;SDS011;6702;47.068;15.458;2022-11-15T07:29:07;69.07;;;39.27;;
13267;SDS011;6702;47.068;15.458;2022-11-15T07:32:10;71.97;;;39.10;;
13267;SDS011;6702;47.068;15.458;2022-11-15T07:35:14;79.53;;;41.63;;
13267;SDS011;6702;47.068;15.458;2022-11-15T07:38:17;65.70;;;37.87;;
13267;SDS011;6702;47.068;15.458;2022-11-15T07:41:23;71.30;;;37.83;;
13267;SDS011;6702;47.068;15.458;2022-11-15T07:44:26;72.97;;;40.83;;
13267;SDS011;6702;47.068;15.458;2022-11-15T07:47:29;63.50;;;38.87;;
13267;SDS011;6702;47.068;15.458;2022-11-15T07:50:32;69.40;;;37.97;;
13267;SDS011;6702;47.068;15.458;2022-11-15T07:53:35;74.43;;;41.13;;
13267;SDS011;6702;47.068;15.458;2022-11-15T07:56:40;68.00;;;39.90;;
13267;SDS011;6702;47.068;15.458;2022-11-15T07:59:43;67.93;;;38.67;;
13267;SDS011;6702;47.068;15.458;2022-11-15T08:02:46;73.03;;;40.47;;
13267;SDS011;6702;47.068;15.458;2022-11-15T08:05:50;81.33;;;42.83;;
13267;SDS011;6702;47.068;15.458;2022-11-15T08:08:53;78.17;;;45.07;;
13267;SDS011;6702;47.068;15.458;2022-11-15T08:11:58;77.27;;;43.60;;
13267;SDS011;6702;47.068;15.458;2022-11-15T08:15:01;73.33;;;40.23;;
13267;SDS011;6702;47.068;15.458;2022-11-15T08:18:06;73.90;;;40.60;;
13267;SDS011;6702;47.068;15.458;2022-11-15T08:21:13;77.97;;;42.30;;
13267;SDS011;6702;47.068;15.458;2022-11-15T08:24:20;76.87;;;40.13;;
13267;SDS011;6702;47.068;15.458;2022-11-15T08:27:24;77.37;;;43.40;;
13267;SDS011;6702;47.068;15.458;2022-11-15T08:30:28;82.60;;;43.37;;
13267;SDS011;6702;47.068;15.458;2022-11-15T08:33:32;72.00;;;42.13;;
13267;SDS011;6702;47.068;15.458;2022-11-15T08:36:35;81.23;;;41.10;;
13267;SDS011;6702;47.068;15.458;2022-11-15T08:39:46;70.47;;;39.13;;
13267;SDS011;6702;47.068;15.458;2022-11-15T08:42:50;74.00;;;42.20;;
13267;SDS011;6702;47.068;15.458;2022-11-15T08:45:55;67.43;;;39.83;;
13267;SDS011;6702;47.068;15.458;2022-11-15T08:48:58;67.20;;;38.17;;
13267;SDS011;6702;47.068;15.458;2022-11-15T08:52:01;68.80;;;39.27;;
13267;SDS011;6702;47.068;15.458;2022-11-15T08:55:05;72.13;;;40.70;;
13267;SDS011;6702;47.068;15.458;2022-11-15T08:58:10;64.40;;;39.20;;
13267;SDS011;6702;47.068;15.458;2022-11-15T09:01:14;68.50;;;37.87;;
13267;SDS011;6702;47.068;15.458;2022-11-15T09:04:19;67.77;;;40.53;;
13267;SDS011;6702;47.068;15.458;2022-11-15T09:07:22;71.13;;;39.87;;
13267;SDS011;6702;47.068;15.458;2022-11-15T09:10:26;74.20;;;41.80;;
13267;SDS011;6702;47.068;15.458;2022-11-15T09:13:30;78.10;;;45.10;;
13267;SDS011;6702;47.068;15.458;2022-11-15T09:16:36;78.80;;;46.67;;
13267;SDS011;6702;47.068;15.458;2022-11-15T09:19:39;74.60;;;44.60;;
13267;SDS011;6702;47.068;15.458;2022-11-15T09:22:42;81.27;;;46.07;;
13267;SDS011;6702;47.068;15.458;2022-11-15T09:25:45;88.87;;;47.63;;
13267;SDS011;6702;47.068;15.458;2022-11-15T09:28:50;92.57;;;47.47;;
13267;SDS011;6702;47.068;15.458;2022-11-15T09:31:53;96.53;;;46.17;;
13267;SDS011;6702;47.068;15.458;2022-11-15T09:34:56;88.40;;;45.93;;
13267;SDS011;6702;47.068;15.458;2022-11-15T09:38:00;82.47;;;48.80;;
13267;SDS011;6702;47.068;15.458;2022-11-15T09:44:51;82.70;;;48.23;;
13267;SDS011;6702;47.068;15.458;2022-11-15T09:48:20;94.80;;;48.00;;
13267;SDS011;6702;47.068;15.458;2022-11-15T09:51:34;88.97;;;48.57;;
13267;SDS011;6702;47.068;15.458;2022-11-15T09:54:48;100.83;;;49.97;;
13267;SDS011;6702;47.068;15.458;2022-11-15T09:57:58;89.20;;;48.30;;
13267;SDS011;6702;47.068;15.458;2022-11-15T10:01:12;88.53;;;45.67;;
13267;SDS011;6702;47.068;15.458;2022-11-15T10:04:19;82.67;;;44.90;;
13267;SDS011;6702;47.068;15.458;2022-11-15T10:07:25;85.70;;;47.70;;
13267;SDS011;6702;47.068;15.458;2022-11-15T10:10:34;79.20;;;44.67;;
13267;SDS011;6702;47.068;15.458;2022-11-15T10:13:42;77.43;;;41.50;;
13267;SDS011;6702;47.068;15.458;2022-11-15T10:20:30;73.80;;;41.23;;
13267;SDS011;6702;47.068;15.458;2022-11-15T10:23:37;82.60;;;44.40;;
13267;SDS011;6702;47.068;15.458;2022-11-15T10:26:45;73.00;;;40.20;;
13267;SDS011;6702;47.068;15.458;2022-11-15T10:29:49;65.40;;;39.10;;
13267;SDS011;6702;47.068;15.458;2022-11-15T10:32:54;64.97;;;38.90;;
13267;SDS011;6702;47.068;15.458;2022-11-15T10:36:17;70.03;;;41.83;;
13267;SDS011;6702;47.068;15.458;2022-11-15T10:39:23;69.07;;;41.90;;
13267;SDS011;6702;47.068;15.458;2022-11-15T10:42:27;66.33;;;36.87;;
13267;SDS011;6702;47.068;15.458;2022-11-15T10:45:33;60.13;;;39.90;;
13267;SDS011;6702;47.068;15.458;2022-11-15T10:48:38;54.47;;;34.70;;
13267;SDS011;6702;47.068;15.458;2022-11-15T10:51:42;51.47;;;33.87;;
13267;SDS011;6702;47.068;15.458;2022-11-15T10:54:48;63.53;;;39.40;;
13267;SDS011;6702;47.068;15.458;2022-11-15T10:57:56;61.37;;;38.80;;
13267;SDS011;6702;47.068;15.458;2022-11-15T11:01:09;58.73;;;35.90;;
13267;SDS011;6702;47.068;15.458;2022-11-15T11:04:19;49.40;;;32.47;;
13267;SDS011;6702;47.068;15.458;2022-11-15T11:07:23;50.50;;;32.70;;
13267;SDS011;6702;47.068;15.458;2022-11-15T11:10:27;57.93;;;35.10;;
13267;SDS011;6702;47.068;15.458;2022-11-15T11:13:51;53.73;;;32.50;;
13267;SDS011;6702;47.068;15.458;2022-11-15T11:16:55;52.90;;;33.20;;
13267;SDS011;6702;47.068;15.458;2022-11-15T11:20:09;54.27;;;33.07;;
13267;SDS011;6702;47.068;15.458;2022-11-15T11:23:24;55.37;;;37.17;;
13267;SDS011;6702;47.068;15.458;2022-11-15T11:26:40;55.80;;;35.20;;
13267;SDS011;6702;47.068;15.458;2022-11-15T11:30:00;56.57;;;36.60;;
13267;SDS011;6702;47.068;15.458;2022-11-15T11:33:10;56.03;;;35.50;;
13267;SDS011;6702;47.068;15.458;2022-11-15T11:36:24;52.83;;;33.33;;
13267;SDS011;6702;47.068;15.458;2022-11-15T11:39:31;50.83;;;32.63;;
13267;SDS011;6702;47.068;15.458;2022-11-15T11:42:45;49.67;;;32.67;;
13267;SDS011;6702;47.068;15.458;2022-11-15T11:46:06;48.27;;;33.70;;
13267;SDS011;6702;47.068;15.458;2022-11-15T11:49:21;45.57;;;33.10;;
13267;SDS011;6702;47.068;15.458;2022-11-15T11:52:31;49.07;;;32.20;;
13267;SDS011;6702;47.068;15.458;2022-11-15T11:55:41;49.87;;;31.97;;
13267;SDS011;6702;47.068;15.458;2022-11-15T11:58:47;49.87;;;33.13;;
13267;SDS011;6702;47.068;15.458;2022-11-15T12:01:52;46.53;;;33.53;;
13267;SDS011;6702;47.068;15.458;2022-11-15T12:04:59;43.43;;;30.07;;
13267;SDS011;6702;47.068;15.458;2022-11-15T12:08:22;49.87;;;33.63;;
13267;SDS011;6702;47.068;15.458;2022-11-15T12:11:34;41.20;;;30.40;;
13267;SDS011;6702;47.068;15.458;2022-11-15T12:14:42;43.87;;;30.80;;
13267;SDS011;6702;47.068;15.458;2022-11-15T12:17:48;41.73;;;29.43;;
13267;SDS011;6702;47.068;15.458;2022-11-15T12:20:52;38.40;;;27.57;;
13267;SDS011;6702;47.068;15.458;2022-11-15T12:24:02;35.70;;;27.87;;
13267;SDS011;6702;47.068;15.458;2022-11-15T12:27:13;37.43;;;27.57;;
13267;SDS011;6702;47.068;15.458;2022-11-15T12:30:29;37.57;;;27.63;;
13267;SDS011;6702;47.068;15.458;2022-11-15T12:33:43;44.20;;;26.47;;
13267;SDS011;6702;47.068;15.458;2022-11-15T12:36:49;36.60;;;26.23;;
13267;SDS011;6702;47.068;15.458;2022-11-15T12:40:05;36.93;;;27.33;;
13267;SDS011;6702;47.068;15.458;2022-11-15T12:47:01;40.93;;;27.90;;
13267;SDS011;6702;47.068;15.458;2022-11-15T12:50:11;35.33;;;26.17;;
13267;SDS011;6702;47.068;15.458;2022-11-15T12:53:28;35.27;;;26.13;;
13267;SDS011;6702;47.068;15.458;2022-11-15T12:56:34;38.70;;;26.60;;
13267;SDS011;6702;47.068;15.458;2022-11-15T12:59:49;47.70;;;30.00;;
13267;SDS011;6702;47.068;15.458;2022-11-15T13:03:12;41.73;;;28.20;;
13267;SDS011;6702;47.068;15.458;2022-11-15T13:06:39;44.40;;;27.90;;
13267;SDS011;6702;47.068;15.458;2022-11-15T13:09:51;44.97;;;30.10;;
13267;SDS011;6702;47.068;15.458;2022-11-15T13:12:59;40.17;;;28.43;;
13267;SDS011;6702;47.068;15.458;2022-11-15T13:16:03;32.93;;;24.40;;
13267;SDS011;6702;47.068;15.458;2022-11-15T13:19:09;40.43;;;26.93;;
13267;SDS011;6702;47.068;15.458;2022-11-15T13:22:13;35.90;;;25.63;;
13267;SDS011;6702;47.068;15.458;2022-11-15T13:29:19;36.90;;;25.90;;
13267;SDS011;6702;47.068;15.458;2022-11-15T13:32:22;39.40;;;28.70;;
13267;SDS011;6702;47.068;15.458;2022-11-15T13:35:27;40.93;;;29.93;;
13267;SDS011;6702;47.068;15.458;2022-11-15T13:38:32;36.87;;;26.17;;
13267;SDS011;6702;47.068;15.458;2022-11-15T13:41:50;33.03;;;24.80;;
13267;SDS011;6702;47.068;15.458;2022-11-15T13:44:55;36.13;;;25.90;;
13267;SDS011;6702;47.068;15.458;2022-11-15T13:48:02;34.53;;;23.90;;
13267;SDS011;6702;47.068;15.458;2022-11-15T13:51:08;31.47;;;26.17;;
13267;SDS011;6702;47.068;15.458;2022-11-15T13:54:18;36.30;;;26.30;;
13267;SDS011;6702;47.068;15.458;2022-11-15T13:57:27;27.80;;;24.33;;
13267;SDS011;6702;47.068;15.458;2022-11-15T14:00:36;31.10;;;23.97;;
13267;SDS011;6702;47.068;15.458;2022-11-15T14:03:46;30.00;;;24.20;;
13267;SDS011;6702;47.068;15.458;2022-11-15T14:06:56;35.93;;;27.23;;
13267;SDS011;6702;47.068;15.458;2022-11-15T14:10:16;26.77;;;22.37;;
13267;SDS011;6702;47.068;15.458;2022-11-15T14:13:27;31.77;;;23.73;;
13267;SDS011;6702;47.068;15.458;2022-11-15T14:16:34;33.80;;;23.30;;
13267;SDS011;6702;47.068;15.458;2022-11-15T14:19:39;32.73;;;21.57;;
13267;SDS011;6702;47.068;15.458;2022-11-15T14:22:50;30.17;;;21.07;;
13267;SDS011;6702;47.068;15.458;2022-11-15T14:25:54;29.00;;;21.93;;
13267;SDS011;6702;47.068;15.458;2022-11-15T14:32:28;32.40;;;21.90;;
13267;SDS011;6702;47.068;15.458;2022-11-15T14:35:32;29.17;;;20.80;;
13267;SDS011;6702;47.068;15.458;2022-11-15T14:38:40;32.43;;;22.57;;
13267;SDS011;6702;47.068;15.458;2022-11-15T14:41:44;29.80;;;21.97;;
13267;SDS011;6702;47.068;15.458;2022-11-15T14:44:47;22.10;;;18.53;;
13267;SDS011;6702;47.068;15.458;2022-11-15T14:47:52;27.60;;;21.33;;
13267;SDS011;6702;47.068;15.458;2022-11-15T14:50:55;25.90;;;20.27;;
13267;SDS011;6702;47.068;15.458;2022-11-15T14:53:59;26.50;;;20.37;;
13267;SDS011;6702;47.068;15.458;2022-11-15T14:57:02;24.70;;;18.93;;
13267;SDS011;6702;47.068;15.458;2022-11-15T15:00:06;29.87;;;22.33;;
13267;SDS011;6702;47.068;15.458;2022-11-15T15:03:12;32.17;;;22.80;;
13267;SDS011;6702;47.068;15.458;2022-11-15T15:06:15;24.83;;;20.63;;
13267;SDS011;6702;47.068;15.458;2022-11-15T15:09:19;29.73;;;24.40;;
13267;SDS011;6702;47.068;15.458;2022-11-15T15:12:22;24.23;;;20.00;;
13267;SDS011;6702;47.068;15.458;2022-11-15T15:15:27;29.03;;;22.30;;
13267;SDS011;6702;47.068;15.458;2022-11-15T15:18:35;27.37;;;21.13;;
13267;SDS011;6702;47.068;15.458;2022-11-15T15:21:38;25.30;;;20.97;;
13267;SDS011;6702;47.068;15.458;2022-11-15T15:24:41;28.20;;;20.70;;
13267;SDS011;6702;47.068;15.458;2022-11-15T15:27:45;31.17;;;23.07;;
13267;SDS011;6702;47.068;15.458;2022-11-15T15:30:48;25.20;;;20.70;;
13267;SDS011;6702;47.068;15.458;2022-11-15T15:33:53;27.73;;;20.67;;
13267;SDS011;6702;47.068;15.458;2022-11-15T15:40:27;26.90;;;22.70;;
13267;SDS011;6702;47.068;15.458;2022-11-15T15:43:32;28.50;;;21.23;;
13267;SDS011;6702;47.068;15.458;2022-11-15T15:46:35;30.43;;;22.23;;
13267;SDS011;6702;47.068;15.458;2022-11-15T15:49:40;29.97;;;19.40;;
13267;SDS011;6702;47.068;15.458;2022-11-15T15:52:43;24.33;;;19.20;;
13267;SDS011;6702;47.068;15.458;2022-11-15T15:55:46;22.40;;;18.87;;
13267;SDS011;6702;47.068;15.458;2022-11-15T15:58:49;23.97;;;18.30;;
13267;SDS011;6702;47.068;15.458;2022-11-15T16:01:53;22.93;;;17.87;;
13267;SDS011;6702;47.068;15.458;2022-11-15T16:04:58;26.67;;;19.33;;
13267;SDS011;6702;47.068;15.458;2022-11-15T16:08:01;26.20;;;20.83;;
13267;SDS011;6702;47.068;15.458;2022-11-15T16:11:05;31.17;;;20.17;;
13267;SDS011;6702;47.068;15.458;2022-11-15T16:14:09;23.50;;;18.17;;
13267;SDS011;6702;47.068;15.458;2022-11-15T16:17:13;23.27;;;17.37;;
13267;SDS011;6702;47.068;15.458;2022-11-15T16:20:23;23.10;;;18.83;;
13267;SDS011;6702;47.068;15.458;2022-11-15T16:23:34;26.90;;;18.97;;
13267;SDS011;6702;47.068;15.458;2022-11-15T16:26:37;26.80;;;18.30;;
13267;SDS011;6702;47.068;15.458;2022-11-15T16:29:41;24.57;;;18.20;;
13267;SDS011;6702;47.068;15.458;2022-11-15T16:32:48;19.93;;;17.10;;
13267;SDS011;6702;47.068;15.458;2022-11-15T16:35:53;20.87;;;17.93;;
13267;SDS011;6702;47.068;15.458;2022-11-15T16:38:57;29.33;;;19.37;;
13267;SDS011;6702;47.068;15.458;2022-11-15T16:42:01;25.40;;;20.17;;
13267;SDS011;6702;47.068;15.458;2022-11-15T16:45:05;31.60;;;21.90;;
13267;SDS011;6702;47.068;15.458;2022-11-15T16:48:18;27.40;;;21.10;;
13267;SDS011;6702;47.068;15.458;2022-11-15T16:51:25;24.77;;;20.10;;
13267;SDS011;6702;47.068;15.458;2022-11-15T16:54:28;29.00;;;22.90;;
13267;SDS011;6702;47.068;15.458;2022-11-15T16:57:34;31.17;;;23.00;;
13267;SDS011;6702;47.068;15.458;2022-11-15T17:00:38;26.63;;;19.93;;
13267;SDS011;6702;47.068;15.458;2022-11-15T17:03:42;24.43;;;21.03;;
13267;SDS011;6702;47.068;15.458;2022-11-15T17:06:47;23.83;;;20.10;;
13267;SDS011;6702;47.068;15.458;2022-11-15T17:09:53;26.30;;;21.87;;
13267;SDS011;6702;47.068;15.458;2022-11-15T17:12:57;26.27;;;21.17;;
13267;SDS011;6702;47.068;15.458;2022-11-15T17:16:04;29.63;;;20.90;;
13267;SDS011;6702;47.068;15.458;2022-11-15T17:19:12;29.67;;;21.47;;
13267;SDS011;6702;47.068;15.458;2022-11-15T17:22:17;27.33;;;20.57;;
13267;SDS011;6702;47.068;15.458;2022-11-15T17:25:21;27.50;;;21.77;;
13267;SDS011;6702;47.068;15.458;2022-11-15T17:28:24;32.20;;;25.03;;
13267;SDS011;6702;47.068;15.458;2022-11-15T17:31:29;33.23;;;24.37;;
13267;SDS011;6702;47.068;15.458;2022-11-15T17:34:34;29.67;;;20.43;;
13267;SDS011;6702;47.068;15.458;2022-11-15T17:37:39;31.70;;;22.07;;
13267;SDS011;6702;47.068;15.458;2022-11-15T17:40:44;30.27;;;21.87;;
13267;SDS011;6702;47.068;15.458;2022-11-15T17:43:48;26.30;;;20.87;;
13267;SDS011;6702;47.068;15.458;2022-11-15T17:46:52;28.97;;;19.60;;
13267;SDS011;6702;47.068;15.458;2022-11-15T17:49:55;28.10;;;21.00;;
13267;SDS011;6702;47.068;15.458;2022-11-15T17:53:00;34.47;;;21.27;;
13267;SDS011;6702;47.068;15.458;2022-11-15T17:56:04;27.10;;;19.27;;
13267;SDS011;6702;47.068;15.458;2022-11-15T17:59:11;32.10;;;20.30;;
13267;SDS011;6702;47.068;15.458;2022-11-15T18:02:21;27.83;;;20.20;;
13267;SDS011;6702;47.068;15.458;2022-11-15T18:05:25;28.47;;;19.53;;
13267;SDS011;6702;47.068;15.458;2022-11-15T18:08:34;26.10;;;20.50;;
13267;SDS011;6702;47.068;15.458;2022-11-15T18:11:39;34.47;;;21.73;;
13267;SDS011;6702;47.068;15.458;2022-11-15T18:14:44;31.63;;;21.17;;
13267;SDS011;6702;47.068;15.458;2022-11-15T18:17:47;31.73;;;22.53;;
13267;SDS011;6702;47.068;15.458;2022-11-15T18:20:57;33.20;;;23.67;;
13267;SDS011;6702;47.068;15.458;2022-11-15T18:24:03;32.50;;;22.20;;
13267;SDS011;6702;47.068;15.458;2022-11-15T18:27:12;24.97;;;21.20;;
13267;SDS011;6702;47.068;15.458;2022-11-15T18:30:16;31.80;;;23.03;;
13267;SDS011;6702;47.068;15.458;2022-11-15T18:33:20;32.37;;;20.83;;
13267;SDS011;6702;47.068;15.458;2022-11-15T18:36:25;30.00;;;21.77;;